sensor_id;sensor_type;location;lat;lon;timestamp;pressure;altitude;pressure_sealevel;temperature;humidity
31239;BME280;17871;31.584;74.450;2023-07-29T00:01:08;97190.38;;;31.10;100.00
31239;BME280;17871;31.584;74.450;2023-07-29T00:03:38;97197.03;;;31.14;100.00
31239;BME280;17871;31.584;74.450;2023-07-29T00:06:09;97203.56;;;31.10;100.00
31239;BME280;17871;31.584;74.450;2023-07-29T00:08:38;97200.94;;;31.10;100.00
31239;BME280;17871;31.584;74.450;2023-07-29T00:11:07;97204.28;;;31.12;100.00
31239;BME280;17871;31.584;74.450;2023-07-29T00:13:36;97203.28;;;31.13;100.00
31239;BME280;17871;31.584;74.450;2023-07-29T00:16:05;97214.13;;;31.10;100.00
31239;BME280;17871;31.584;74.450;2023-07-29T00:18:35;97217.63;;;31.10;100.00
31239;BME280;17871;31.584;74.450;2023-07-29T00:21:04;97216.41;;;31.05;100.00
31239;BME280;17871;31.584;74.450;2023-07-29T00:23:33;97211.94;;;31.05;100.00
31239;BME280;17871;31.584;74.450;2023-07-29T00:26:02;97214.44;;;31.07;100.00
31239;BME280;17871;31.584;74.450;2023-07-29T00:28:31;97215.97;;;31.00;100.00
31239;BME280;17871;31.584;74.450;2023-07-29T00:31:01;97220.69;;;31.06;100.00
31239;BME280;17871;31.584;74.450;2023-07-29T00:33:31;97220.97;;;31.03;100.00
31239;BME280;17871;31.584;74.450;2023-07-29T00:35:59;97222.47;;;31.15;100.00
31239;BME280;17871;31.584;74.450;2023-07-29T00:38:32;97223.56;;;31.12;100.00
31239;BME280;17871;31.584;74.450;2023-07-29T00:41:02;97235.91;;;31.21;100.00
31239;BME280;17871;31.584;74.450;2023-07-29T00:43:32;97249.41;;;31.18;100.00
31239;BME280;17871;31.584;74.450;2023-07-29T00:46:02;97255.25;;;31.12;100.00
31239;BME280;17871;31.584;74.450;2023-07-29T00:48:31;97257.75;;;31.14;100.00
31239;BME280;17871;31.584;74.450;2023-07-29T00:51:02;97256.50;;;31.18;100.00
31239;BME280;17871;31.584;74.450;2023-07-29T00:53:31;97262.44;;;31.20;100.00
31239;BME280;17871;31.584;74.450;2023-07-29T00:56:01;97275.09;;;31.16;100.00
31239;BME280;17871;31.584;74.450;2023-07-29T00:58:30;97269.69;;;31.18;100.00
31239;BME280;17871;31.584;74.450;2023-07-29T01:00:59;97278.88;;;31.14;100.00
31239;BME280;17871;31.584;74.450;2023-07-29T01:03:29;97287.78;;;31.03;100.00
31239;BME280;17871;31.584;74.450;2023-07-29T01:06:34;97283.84;;;31.17;100.00
31239;BME280;17871;31.584;74.450;2023-07-29T01:09:26;97296.38;;;31.15;100.00
31239;BME280;17871;31.584;74.450;2023-07-29T01:12:21;97318.75;;;30.34;100.00
31239;BME280;17871;31.584;74.450;2023-07-29T01:17:29;97339.84;;;29.45;100.00
31239;BME280;17871;31.584;74.450;2023-07-29T01:22:35;97327.94;;;29.20;100.00
31239;BME280;17871;31.584;74.450;2023-07-29T01:25:05;97344.63;;;28.89;100.00
31239;BME280;17871;31.584;74.450;2023-07-29T01:27:34;97353.72;;;29.05;100.00
31239;BME280;17871;31.584;74.450;2023-07-29T01:30:04;97371.94;;;28.65;100.00
31239;BME280;17871;31.584;74.450;2023-07-29T01:37:55;97347.13;;;28.90;100.00
31239;BME280;17871;31.584;74.450;2023-07-29T01:40:27;97334.00;;;28.58;100.00
31239;BME280;17871;31.584;74.450;2023-07-29T01:42:57;97333.84;;;28.92;100.00
31239;BME280;17871;31.584;74.450;2023-07-29T01:45:26;97339.22;;;28.69;100.00
31239;BME280;17871;31.584;74.450;2023-07-29T01:47:55;97346.25;;;29.01;100.00
31239;BME280;17871;31.584;74.450;2023-07-29T01:50:24;97352.31;;;28.80;100.00
31239;BME280;17871;31.584;74.450;2023-07-29T01:52:53;97347.13;;;28.69;100.00
31239;BME280;17871;31.584;74.450;2023-07-29T01:55:22;97337.09;;;29.05;100.00
31239;BME280;17871;31.584;74.450;2023-07-29T01:57:51;97324.41;;;29.30;100.00
31239;BME280;17871;31.584;74.450;2023-07-29T02:00:21;97320.88;;;29.20;100.00
31239;BME280;17871;31.584;74.450;2023-07-29T02:02:51;97333.84;;;29.33;100.00
31239;BME280;17871;31.584;74.450;2023-07-29T02:05:20;97322.66;;;29.20;100.00
31239;BME280;17871;31.584;74.450;2023-07-29T02:07:50;97332.16;;;29.32;100.00
31239;BME280;17871;31.584;74.450;2023-07-29T02:10:19;97357.94;;;29.59;100.00
31239;BME280;17871;31.584;74.450;2023-07-29T02:12:49;97362.81;;;29.63;100.00
31239;BME280;17871;31.584;74.450;2023-07-29T02:15:18;97374.06;;;29.75;100.00
31239;BME280;17871;31.584;74.450;2023-07-29T02:17:50;97363.97;;;29.70;100.00
31239;BME280;17871;31.584;74.450;2023-07-29T02:20:21;97368.78;;;29.65;100.00
31239;BME280;17871;31.584;74.450;2023-07-29T02:22:51;97357.94;;;29.59;100.00
31239;BME280;17871;31.584;74.450;2023-07-29T02:25:20;97351.75;;;29.69;98.96
31239;BME280;17871;31.584;74.450;2023-07-29T02:27:49;97359.91;;;29.97;99.66
31239;BME280;17871;31.584;74.450;2023-07-29T02:30:18;97344.53;;;30.02;98.46
31239;BME280;17871;31.584;74.450;2023-07-29T02:32:47;97357.72;;;30.21;97.24
31239;BME280;17871;31.584;74.450;2023-07-29T02:35:17;97383.53;;;30.27;97.47
31239;BME280;17871;31.584;74.450;2023-07-29T02:37:46;97382.03;;;30.34;98.31
31239;BME280;17871;31.584;74.450;2023-07-29T02:40:19;97394.38;;;30.33;96.22
31239;BME280;17871;31.584;74.450;2023-07-29T02:42:49;97389.66;;;30.27;97.58
31239;BME280;17871;31.584;74.450;2023-07-29T02:45:18;97384.53;;;30.26;96.34
31239;BME280;17871;31.584;74.450;2023-07-29T02:47:47;97396.34;;;30.31;95.36
31239;BME280;17871;31.584;74.450;2023-07-29T02:50:17;97408.84;;;30.39;96.76
31239;BME280;17871;31.584;74.450;2023-07-29T02:52:46;97416.31;;;30.34;96.58
31239;BME280;17871;31.584;74.450;2023-07-29T02:55:18;97413.44;;;30.47;96.20
31239;BME280;17871;31.584;74.450;2023-07-29T02:57:47;97418.25;;;30.32;95.52
31239;BME280;17871;31.584;74.450;2023-07-29T03:00:16;97425.75;;;30.36;96.70
31239;BME280;17871;31.584;74.450;2023-07-29T03:02:45;97434.13;;;30.42;95.33
31239;BME280;17871;31.584;74.450;2023-07-29T03:05:15;97429.19;;;30.27;96.56
31239;BME280;17871;31.584;74.450;2023-07-29T03:07:43;97445.06;;;30.07;96.86
31239;BME280;17871;31.584;74.450;2023-07-29T03:10:14;97464.53;;;30.06;98.04
31239;BME280;17871;31.584;74.450;2023-07-29T03:12:43;97473.69;;;30.11;98.20
31239;BME280;17871;31.584;74.450;2023-07-29T03:15:12;97482.50;;;30.01;99.21
31239;BME280;17871;31.584;74.450;2023-07-29T03:17:41;97498.28;;;29.70;100.00
31239;BME280;17871;31.584;74.450;2023-07-29T03:20:11;97511.88;;;29.55;100.00
31239;BME280;17871;31.584;74.450;2023-07-29T03:22:40;97526.38;;;29.28;100.00
31239;BME280;17871;31.584;74.450;2023-07-29T03:25:09;97526.53;;;29.16;100.00
31239;BME280;17871;31.584;74.450;2023-07-29T03:27:38;97530.19;;;28.93;100.00
31239;BME280;17871;31.584;74.450;2023-07-29T03:30:11;97521.75;;;28.78;100.00
31239;BME280;17871;31.584;74.450;2023-07-29T03:32:44;97519.47;;;28.73;100.00
31239;BME280;17871;31.584;74.450;2023-07-29T03:35:16;97502.41;;;28.68;100.00
31239;BME280;17871;31.584;74.450;2023-07-29T03:37:45;97492.22;;;28.52;100.00
31239;BME280;17871;31.584;74.450;2023-07-29T03:40:16;97495.94;;;28.50;100.00
31239;BME280;17871;31.584;74.450;2023-07-29T03:42:47;97511.50;;;28.08;100.00
31239;BME280;17871;31.584;74.450;2023-07-29T03:45:16;97534.06;;;28.11;100.00
31239;BME280;17871;31.584;74.450;2023-07-29T03:47:45;97539.94;;;28.25;100.00
31239;BME280;17871;31.584;74.450;2023-07-29T03:50:14;97538.13;;;28.15;100.00
31239;BME280;17871;31.584;74.450;2023-07-29T03:52:43;97548.66;;;28.15;100.00
31239;BME280;17871;31.584;74.450;2023-07-29T03:55:12;97555.78;;;28.02;100.00
31239;BME280;17871;31.584;74.450;2023-07-29T03:57:41;97562.47;;;27.60;100.00
31239;BME280;17871;31.584;74.450;2023-07-29T04:00:10;97559.03;;;27.70;100.00
31239;BME280;17871;31.584;74.450;2023-07-29T04:02:42;97564.78;;;27.87;100.00
31239;BME280;17871;31.584;74.450;2023-07-29T04:05:15;97564.69;;;27.99;100.00
31239;BME280;17871;31.584;74.450;2023-07-29T04:07:44;97571.09;;;28.08;100.00
31239;BME280;17871;31.584;74.450;2023-07-29T04:10:14;97574.41;;;27.99;100.00
31239;BME280;17871;31.584;74.450;2023-07-29T04:12:43;97576.16;;;27.87;100.00
31239;BME280;17871;31.584;74.450;2023-07-29T04:15:12;97571.28;;;28.05;100.00
31239;BME280;17871;31.584;74.450;2023-07-29T04:17:42;97549.34;;;28.06;100.00
31239;BME280;17871;31.584;74.450;2023-07-29T04:20:11;97547.44;;;28.08;100.00
31239;BME280;17871;31.584;74.450;2023-07-29T04:22:40;97539.66;;;28.06;100.00
31239;BME280;17871;31.584;74.450;2023-07-29T04:25:10;97540.03;;;28.13;100.00
31239;BME280;17871;31.584;74.450;2023-07-29T04:27:39;97533.34;;;28.20;100.00
31239;BME280;17871;31.584;74.450;2023-07-29T04:30:08;97515.69;;;28.22;100.00
31239;BME280;17871;31.584;74.450;2023-07-29T04:32:37;97519.88;;;28.24;100.00
31239;BME280;17871;31.584;74.450;2023-07-29T04:35:08;97515.66;;;28.33;100.00
31239;BME280;17871;31.584;74.450;2023-07-29T04:37:38;97526.19;;;28.33;100.00
31239;BME280;17871;31.584;74.450;2023-07-29T04:40:07;97524.53;;;28.32;100.00
31239;BME280;17871;31.584;74.450;2023-07-29T04:42:36;97515.91;;;28.30;100.00
31239;BME280;17871;31.584;74.450;2023-07-29T04:45:06;97511.63;;;28.18;100.00
31239;BME280;17871;31.584;74.450;2023-07-29T04:47:35;97497.03;;;28.36;100.00
31239;BME280;17871;31.584;74.450;2023-07-29T04:50:04;97497.28;;;28.44;100.00
31239;BME280;17871;31.584;74.450;2023-07-29T04:52:34;97509.91;;;28.39;100.00
31239;BME280;17871;31.584;74.450;2023-07-29T04:55:04;97532.75;;;28.50;100.00
31239;BME280;17871;31.584;74.450;2023-07-29T04:57:33;97543.59;;;28.56;100.00
31239;BME280;17871;31.584;74.450;2023-07-29T05:00:03;97549.47;;;28.49;100.00
31239;BME280;17871;31.584;74.450;2023-07-29T05:02:32;97545.31;;;28.35;100.00
31239;BME280;17871;31.584;74.450;2023-07-29T05:05:01;97538.03;;;28.27;100.00
31239;BME280;17871;31.584;74.450;2023-07-29T05:07:31;97528.81;;;28.33;100.00
31239;BME280;17871;31.584;74.450;2023-07-29T05:10:01;97536.22;;;28.39;100.00
31239;BME280;17871;31.584;74.450;2023-07-29T05:12:32;97536.22;;;28.50;100.00
31239;BME280;17871;31.584;74.450;2023-07-29T05:15:01;97545.78;;;28.51;100.00
31239;BME280;17871;31.584;74.450;2023-07-29T05:17:32;97551.03;;;28.40;100.00
31239;BME280;17871;31.584;74.450;2023-07-29T05:20:01;97555.94;;;28.45;100.00
31239;BME280;17871;31.584;74.450;2023-07-29T05:22:30;97556.06;;;28.32;100.00
31239;BME280;17871;31.584;74.450;2023-07-29T05:24:59;97540.78;;;28.15;100.00
31239;BME280;17871;31.584;74.450;2023-07-29T05:27:28;97512.56;;;28.06;100.00
31239;BME280;17871;31.584;74.450;2023-07-29T05:29:59;97482.69;;;28.29;100.00
31239;BME280;17871;31.584;74.450;2023-07-29T05:32:30;97483.88;;;28.36;100.00
31239;BME280;17871;31.584;74.450;2023-07-29T05:34:59;97474.81;;;28.40;100.00
31239;BME280;17871;31.584;74.450;2023-07-29T05:37:28;97494.25;;;28.49;100.00
31239;BME280;17871;31.584;74.450;2023-07-29T05:39:57;97518.25;;;28.55;100.00
31239;BME280;17871;31.584;74.450;2023-07-29T05:42:26;97511.59;;;28.40;100.00
31239;BME280;17871;31.584;74.450;2023-07-29T05:44:55;97495.13;;;28.27;100.00
31239;BME280;17871;31.584;74.450;2023-07-29T05:47:24;97479.38;;;28.27;100.00
31239;BME280;17871;31.584;74.450;2023-07-29T05:49:53;97474.56;;;28.43;100.00
31239;BME280;17871;31.584;74.450;2023-07-29T05:52:23;97476.00;;;28.47;100.00
31239;BME280;17871;31.584;74.450;2023-07-29T05:54:52;97468.84;;;28.38;100.00
31239;BME280;17871;31.584;74.450;2023-07-29T05:57:21;97459.88;;;28.41;100.00
31239;BME280;17871;31.584;74.450;2023-07-29T05:59:49;97438.59;;;28.44;100.00
31239;BME280;17871;31.584;74.450;2023-07-29T06:02:19;97430.94;;;28.52;100.00
31239;BME280;17871;31.584;74.450;2023-07-29T06:04:48;97424.34;;;28.57;100.00
31239;BME280;17871;31.584;74.450;2023-07-29T06:07:17;97424.75;;;28.42;100.00
31239;BME280;17871;31.584;74.450;2023-07-29T06:09:46;97413.00;;;28.57;100.00
31239;BME280;17871;31.584;74.450;2023-07-29T06:12:15;97411.41;;;28.65;100.00
31239;BME280;17871;31.584;74.450;2023-07-29T06:14:44;97402.69;;;28.65;100.00
31239;BME280;17871;31.584;74.450;2023-07-29T06:17:15;97390.34;;;28.65;100.00
31239;BME280;17871;31.584;74.450;2023-07-29T06:19:44;97394.84;;;28.85;100.00
31239;BME280;17871;31.584;74.450;2023-07-29T06:22:13;97397.13;;;29.11;100.00
31239;BME280;17871;31.584;74.450;2023-07-29T06:24:42;97399.63;;;29.12;100.00
31239;BME280;17871;31.584;74.450;2023-07-29T06:27:11;97393.94;;;29.28;100.00
31239;BME280;17871;31.584;74.450;2023-07-29T06:29:41;97388.81;;;29.26;100.00
31239;BME280;17871;31.584;74.450;2023-07-29T06:32:10;97375.03;;;29.23;100.00
31239;BME280;17871;31.584;74.450;2023-07-29T06:34:39;97374.44;;;29.30;100.00
31239;BME280;17871;31.584;74.450;2023-07-29T06:37:09;97366.13;;;29.35;100.00
31239;BME280;17871;31.584;74.450;2023-07-29T06:39:38;97372.88;;;29.28;100.00
31239;BME280;17871;31.584;74.450;2023-07-29T06:42:06;97372.91;;;29.38;100.00
31239;BME280;17871;31.584;74.450;2023-07-29T06:44:36;97379.75;;;29.40;100.00
31239;BME280;17871;31.584;74.450;2023-07-29T06:47:05;97389.16;;;29.22;100.00
31239;BME280;17871;31.584;74.450;2023-07-29T06:49:34;97392.72;;;29.32;100.00
31239;BME280;17871;31.584;74.450;2023-07-29T06:52:03;97399.56;;;29.44;100.00
31239;BME280;17871;31.584;74.450;2023-07-29T06:54:33;97404.66;;;29.36;100.00
31239;BME280;17871;31.584;74.450;2023-07-29T06:57:01;97398.88;;;29.42;100.00
31239;BME280;17871;31.584;74.450;2023-07-29T06:59:30;97387.47;;;29.62;100.00
31239;BME280;17871;31.584;74.450;2023-07-29T07:01:59;97382.47;;;29.59;100.00
31239;BME280;17871;31.584;74.450;2023-07-29T07:04:28;97376.25;;;29.60;100.00
31239;BME280;17871;31.584;74.450;2023-07-29T07:06:58;97375.41;;;29.60;100.00
31239;BME280;17871;31.584;74.450;2023-07-29T07:09:27;97375.31;;;29.71;100.00
31239;BME280;17871;31.584;74.450;2023-07-29T07:11:56;97382.81;;;29.75;100.00
31239;BME280;17871;31.584;74.450;2023-07-29T07:14:24;97388.88;;;29.66;100.00
31239;BME280;17871;31.584;74.450;2023-07-29T07:16:54;97393.63;;;29.72;100.00
31239;BME280;17871;31.584;74.450;2023-07-29T07:19:23;97399.56;;;29.74;100.00
31239;BME280;17871;31.584;74.450;2023-07-29T07:21:52;97400.22;;;29.57;100.00
31239;BME280;17871;31.584;74.450;2023-07-29T07:24:22;97397.88;;;29.64;100.00
31239;BME280;17871;31.584;74.450;2023-07-29T07:26:51;97385.25;;;29.67;100.00
31239;BME280;17871;31.584;74.450;2023-07-29T07:29:20;97364.31;;;29.56;100.00
31239;BME280;17871;31.584;74.450;2023-07-29T07:31:51;97357.31;;;29.76;100.00
31239;BME280;17871;31.584;74.450;2023-07-29T07:34:24;97364.00;;;29.80;100.00
31239;BME280;17871;31.584;74.450;2023-07-29T07:36:52;97366.84;;;29.98;100.00
31239;BME280;17871;31.584;74.450;2023-07-29T07:39:22;97367.81;;;29.97;100.00
31239;BME280;17871;31.584;74.450;2023-07-29T07:41:51;97349.25;;;30.08;100.00
31239;BME280;17871;31.584;74.450;2023-07-29T07:44:20;97358.00;;;30.18;100.00
31239;BME280;17871;31.584;74.450;2023-07-29T07:46:50;97363.97;;;30.20;100.00
31239;BME280;17871;31.584;74.450;2023-07-29T07:49:19;97357.72;;;30.21;100.00
31239;BME280;17871;31.584;74.450;2023-07-29T07:51:48;97355.00;;;30.32;100.00
31239;BME280;17871;31.584;74.450;2023-07-29T07:54:17;97357.47;;;30.33;100.00
31239;BME280;17871;31.584;74.450;2023-07-29T07:56:46;97355.00;;;30.32;100.00
31239;BME280;17871;31.584;74.450;2023-07-29T07:59:15;97348.44;;;30.26;100.00
31239;BME280;17871;31.584;74.450;2023-07-29T08:01:45;97351.56;;;30.60;100.00
31239;BME280;17871;31.584;74.450;2023-07-29T08:04:14;97359.47;;;30.60;100.00
31239;BME280;17871;31.584;74.450;2023-07-29T08:06:43;97370.44;;;30.84;100.00
31239;BME280;17871;31.584;74.450;2023-07-29T08:09:13;97359.19;;;30.82;100.00
31239;BME280;17871;31.584;74.450;2023-07-29T08:11:43;97344.63;;;30.78;100.00
31239;BME280;17871;31.584;74.450;2023-07-29T08:14:12;97344.75;;;30.96;100.00
31239;BME280;17871;31.584;74.450;2023-07-29T08:16:41;97356.56;;;31.02;100.00
31239;BME280;17871;31.584;74.450;2023-07-29T08:19:10;97349.72;;;30.89;100.00
31239;BME280;17871;31.584;74.450;2023-07-29T08:21:39;97365.00;;;30.86;100.00
31239;BME280;17871;31.584;74.450;2023-07-29T08:24:08;97354.91;;;31.01;100.00
31239;BME280;17871;31.584;74.450;2023-07-29T08:26:37;97357.25;;;31.04;100.00
31239;BME280;17871;31.584;74.450;2023-07-29T08:29:06;97366.00;;;30.75;96.55
31239;BME280;17871;31.584;74.450;2023-07-29T08:31:36;97352.53;;;30.88;100.00
31239;BME280;17871;31.584;74.450;2023-07-29T08:34:05;97350.88;;;30.97;100.00
31239;BME280;17871;31.584;74.450;2023-07-29T08:36:34;97349.44;;;30.93;100.00
31239;BME280;17871;31.584;74.450;2023-07-29T08:39:04;97346.41;;;31.07;100.00
31239;BME280;17871;31.584;74.450;2023-07-29T08:41:49;97336.78;;;31.25;100.00
31239;BME280;17871;31.584;74.450;2023-07-29T08:44:25;97347.50;;;31.14;100.00
31239;BME280;17871;31.584;74.450;2023-07-29T08:46:55;97350.28;;;31.03;100.00
31239;BME280;17871;31.584;74.450;2023-07-29T08:49:26;97357.94;;;30.96;97.83
31239;BME280;17871;31.584;74.450;2023-07-29T08:51:57;97349.47;;;31.12;100.00
31239;BME280;17871;31.584;74.450;2023-07-29T08:54:27;97353.34;;;31.17;100.00
31239;BME280;17871;31.584;74.450;2023-07-29T08:56:57;97366.38;;;31.19;100.00
31239;BME280;17871;31.584;74.450;2023-07-29T08:59:29;97369.19;;;31.08;100.00
31239;BME280;17871;31.584;74.450;2023-07-29T09:01:58;97371.25;;;31.14;100.00
31239;BME280;17871;31.584;74.450;2023-07-29T09:04:27;97368.34;;;31.17;100.00
31239;BME280;17871;31.584;74.450;2023-07-29T09:06:58;97378.34;;;30.84;98.13
31239;BME280;17871;31.584;74.450;2023-07-29T09:09:28;97376.69;;;30.83;99.31
31239;BME280;17871;31.584;74.450;2023-07-29T09:11:57;97368.94;;;30.72;98.28
31239;BME280;17871;31.584;74.450;2023-07-29T09:14:28;97354.91;;;30.72;99.76
31239;BME280;17871;31.584;74.450;2023-07-29T09:16:57;97344.06;;;30.65;100.00
31239;BME280;17871;31.584;74.450;2023-07-29T09:19:28;97347.94;;;30.80;100.00
31239;BME280;17871;31.584;74.450;2023-07-29T09:22:01;97344.63;;;30.98;100.00
31239;BME280;17871;31.584;74.450;2023-07-29T09:24:31;97353.91;;;30.63;100.00
31239;BME280;17871;31.584;74.450;2023-07-29T09:27:00;97343.34;;;30.73;100.00
31239;BME280;17871;31.584;74.450;2023-07-29T09:29:30;97337.41;;;30.71;100.00
31239;BME280;17871;31.584;74.450;2023-07-29T09:32:18;97337.81;;;30.85;100.00
31239;BME280;17871;31.584;74.450;2023-07-29T09:34:48;97337.13;;;30.55;100.00
31239;BME280;17871;31.584;74.450;2023-07-29T09:37:20;97341.28;;;30.96;100.00
31239;BME280;17871;31.584;74.450;2023-07-29T09:39:50;97341.69;;;31.01;100.00
31239;BME280;17871;31.584;74.450;2023-07-29T09:42:20;97331.44;;;30.59;100.00
31239;BME280;17871;31.584;74.450;2023-07-29T09:44:50;97326.41;;;30.56;100.00
31239;BME280;17871;31.584;74.450;2023-07-29T09:47:23;97320.88;;;30.78;100.00
31239;BME280;17871;31.584;74.450;2023-07-29T09:49:53;97333.59;;;30.93;100.00
31239;BME280;17871;31.584;74.450;2023-07-29T09:52:22;97326.38;;;30.37;100.00
31239;BME280;17871;31.584;74.450;2023-07-29T09:54:52;97311.28;;;30.29;100.00
31239;BME280;17871;31.584;74.450;2023-07-29T09:57:21;97308.13;;;30.45;100.00
31239;BME280;17871;31.584;74.450;2023-07-29T09:59:57;97312.38;;;30.84;100.00
31239;BME280;17871;31.584;74.450;2023-07-29T10:02:26;97312.81;;;30.80;100.00
31239;BME280;17871;31.584;74.450;2023-07-29T10:04:58;97316.69;;;30.95;100.00
31239;BME280;17871;31.584;74.450;2023-07-29T10:07:28;97311.53;;;31.03;100.00
31239;BME280;17871;31.584;74.450;2023-07-29T10:09:58;97324.94;;;31.29;100.00
31239;BME280;17871;31.584;74.450;2023-07-29T10:12:29;97318.34;;;31.15;100.00
31239;BME280;17871;31.584;74.450;2023-07-29T10:15:06;97307.91;;;31.14;100.00
31239;BME280;17871;31.584;74.450;2023-07-29T10:17:37;97324.63;;;30.85;100.00
31239;BME280;17871;31.584;74.450;2023-07-29T10:20:08;97330.69;;;30.86;98.60
31239;BME280;17871;31.584;74.450;2023-07-29T10:22:42;97328.38;;;30.54;99.67
31239;BME280;17871;31.584;74.450;2023-07-29T10:25:18;97319.75;;;30.81;99.58
31239;BME280;17871;31.584;74.450;2023-07-29T10:27:57;97317.78;;;30.93;99.78
31239;BME280;17871;31.584;74.450;2023-07-29T10:30:30;97316.28;;;31.00;99.56
31239;BME280;17871;31.584;74.450;2023-07-29T10:33:05;97325.56;;;31.04;100.00
31239;BME280;17871;31.584;74.450;2023-07-29T10:35:36;97320.81;;;31.17;100.00
31239;BME280;17871;31.584;74.450;2023-07-29T10:38:06;97319.44;;;31.13;100.00
31239;BME280;17871;31.584;74.450;2023-07-29T10:40:52;97324.13;;;31.19;100.00
31239;BME280;17871;31.584;74.450;2023-07-29T10:43:38;97326.41;;;30.95;100.00
31239;BME280;17871;31.584;74.450;2023-07-29T10:51:34;97317.78;;;30.93;100.00
31239;BME280;17871;31.584;74.450;2023-07-29T10:54:10;97316.69;;;31.05;100.00
31239;BME280;17871;31.584;74.450;2023-07-29T10:56:49;97320.72;;;31.09;100.00
31239;BME280;17871;31.584;74.450;2023-07-29T11:01:57;97323.06;;;30.93;100.00
31239;BME280;17871;31.584;74.450;2023-07-29T11:04:31;97323.63;;;30.96;100.00
31239;BME280;17871;31.584;74.450;2023-07-29T11:07:19;97311.06;;;31.27;100.00
31239;BME280;17871;31.584;74.450;2023-07-29T11:09:55;97313.75;;;31.08;100.00
31239;BME280;17871;31.584;74.450;2023-07-29T11:12:41;97324.94;;;31.29;99.86
31239;BME280;17871;31.584;74.450;2023-07-29T11:15:24;97315.63;;;30.59;100.00
31239;BME280;17871;31.584;74.450;2023-07-29T11:17:56;97319.44;;;30.94;100.00
31239;BME280;17871;31.584;74.450;2023-07-29T11:20:28;97309.84;;;30.93;100.00
31239;BME280;17871;31.584;74.450;2023-07-29T11:22:58;97304.22;;;30.78;100.00
31239;BME280;17871;31.584;74.450;2023-07-29T11:25:29;97309.91;;;31.02;100.00
31239;BME280;17871;31.584;74.450;2023-07-29T11:27:59;97314.72;;;31.07;100.00
31239;BME280;17871;31.584;74.450;2023-07-29T11:30:33;97311.25;;;31.06;100.00
31239;BME280;17871;31.584;74.450;2023-07-29T11:33:02;97305.13;;;31.06;100.00
31239;BME280;17871;31.584;74.450;2023-07-29T11:35:33;97313.19;;;31.14;100.00
31239;BME280;17871;31.584;74.450;2023-07-29T11:38:02;97323.91;;;31.03;100.00
31239;BME280;17871;31.584;74.450;2023-07-29T11:40:31;97316.13;;;31.11;100.00
31239;BME280;17871;31.584;74.450;2023-07-29T11:43:00;97305.44;;;31.03;100.00
31239;BME280;17871;31.584;74.450;2023-07-29T11:45:29;97303.06;;;31.00;100.00
31239;BME280;17871;31.584;74.450;2023-07-29T11:48:18;97300.03;;;31.04;100.00
31239;BME280;17871;31.584;74.450;2023-07-29T11:50:47;97302.50;;;31.06;100.00
31239;BME280;17871;31.584;74.450;2023-07-29T11:53:16;97295.59;;;30.85;100.00
31239;BME280;17871;31.584;74.450;2023-07-29T11:55:51;97290.31;;;31.05;100.00
31239;BME280;17871;31.584;74.450;2023-07-29T11:58:21;97304.75;;;31.01;100.00
31239;BME280;17871;31.584;74.450;2023-07-29T12:00:51;97302.94;;;31.01;100.00
31239;BME280;17871;31.584;74.450;2023-07-29T12:03:21;97307.38;;;31.01;100.00
31239;BME280;17871;31.584;74.450;2023-07-29T12:05:51;97303.75;;;30.82;100.00
31239;BME280;17871;31.584;74.450;2023-07-29T12:08:20;97301.38;;;30.89;100.00
31239;BME280;17871;31.584;74.450;2023-07-29T12:10:49;97300.06;;;30.75;100.00
31239;BME280;17871;31.584;74.450;2023-07-29T12:13:18;97289.22;;;30.69;100.00
31239;BME280;17871;31.584;74.450;2023-07-29T12:15:47;97279.75;;;30.85;100.00
31239;BME280;17871;31.584;74.450;2023-07-29T12:18:19;97282.25;;;30.97;100.00
31239;BME280;17871;31.584;74.450;2023-07-29T12:20:58;97288.63;;;30.94;100.00
31239;BME280;17871;31.584;74.450;2023-07-29T12:23:28;97301.16;;;31.02;100.00
31239;BME280;17871;31.584;74.450;2023-07-29T12:25:59;97281.84;;;31.01;100.00
31239;BME280;17871;31.584;74.450;2023-07-29T12:28:30;97279.19;;;31.01;100.00
31239;BME280;17871;31.584;74.450;2023-07-29T12:31:00;97287.41;;;30.98;100.00
31239;BME280;17871;31.584;74.450;2023-07-29T12:33:37;97294.59;;;31.06;100.00
31239;BME280;17871;31.584;74.450;2023-07-29T12:36:07;97287.09;;;30.92;100.00
31239;BME280;17871;31.584;74.450;2023-07-29T12:38:36;97276.97;;;30.97;100.00
31239;BME280;17871;31.584;74.450;2023-07-29T12:41:06;97279.47;;;30.88;100.00
31239;BME280;17871;31.584;74.450;2023-07-29T12:43:34;97271.72;;;30.77;100.00
31239;BME280;17871;31.584;74.450;2023-07-29T12:46:04;97277.00;;;30.68;100.00
31239;BME280;17871;31.584;74.450;2023-07-29T12:48:32;97276.03;;;30.78;100.00
31239;BME280;17871;31.584;74.450;2023-07-29T12:51:02;97294.88;;;30.83;100.00
31239;BME280;17871;31.584;74.450;2023-07-29T12:53:31;97294.22;;;30.81;100.00
31239;BME280;17871;31.584;74.450;2023-07-29T12:56:00;97292.41;;;30.72;100.00
31239;BME280;17871;31.584;74.450;2023-07-29T12:58:30;97293.63;;;30.87;100.00
31239;BME280;17871;31.584;74.450;2023-07-29T13:00:59;97291.56;;;30.81;100.00
31239;BME280;17871;31.584;74.450;2023-07-29T13:03:28;97292.84;;;30.58;100.00
31239;BME280;17871;31.584;74.450;2023-07-29T13:05:57;97287.81;;;30.74;100.00
31239;BME280;17871;31.584;74.450;2023-07-29T13:08:26;97287.53;;;30.77;100.00
31239;BME280;17871;31.584;74.450;2023-07-29T13:10:55;97283.38;;;30.84;100.00
31239;BME280;17871;31.584;74.450;2023-07-29T13:13:24;97280.44;;;30.87;100.00
31239;BME280;17871;31.584;74.450;2023-07-29T13:15:53;97282.97;;;30.60;99.87